sensor_id;sensor_type;location;lat;lon;timestamp;P1;durP1;ratioP1;P2;durP2;ratioP2
14849;SDS011;7517;48.400;11.770;2022-11-02T00:01:25;3.93;;;2.90;;
14849;SDS011;7517;48.400;11.770;2022-11-02T00:04:02;3.73;;;2.80;;
14849;SDS011;7517;48.400;11.770;2022-11-02T00:06:31;3.43;;;2.77;;
14849;SDS011;7517;48.400;11.770;2022-11-02T00:08:58;3.37;;;3.07;;
14849;SDS011;7517;48.400;11.770;2022-11-02T00:11:25;4.07;;;2.33;;
14849;SDS011;7517;48.400;11.770;2022-11-02T00:13:52;3.83;;;2.43;;
14849;SDS011;7517;48.400;11.770;2022-11-02T00:16:20;3.30;;;3.03;;
14849;SDS011;7517;48.400;11.770;2022-11-02T00:18:50;3.47;;;2.57;;
14849;SDS011;7517;48.400;11.770;2022-11-02T00:21:21;2.43;;;2.30;;
14849;SDS011;7517;48.400;11.770;2022-11-02T00:23:53;2.97;;;2.57;;
14849;SDS011;7517;48.400;11.770;2022-11-02T00:26:22;2.97;;;2.63;;
14849;SDS011;7517;48.400;11.770;2022-11-02T00:28:50;2.90;;;2.37;;
14849;SDS011;7517;48.400;11.770;2022-11-02T00:31:19;3.40;;;2.93;;
14849;SDS011;7517;48.400;11.770;2022-11-02T00:33:46;3.93;;;2.47;;
14849;SDS011;7517;48.400;11.770;2022-11-02T00:36:13;3.03;;;2.63;;
14849;SDS011;7517;48.400;11.770;2022-11-02T00:38:41;2.50;;;2.30;;
14849;SDS011;7517;48.400;11.770;2022-11-02T00:41:10;2.50;;;2.23;;
14849;SDS011;7517;48.400;11.770;2022-11-02T00:43:37;2.70;;;2.50;;
14849;SDS011;7517;48.400;11.770;2022-11-02T00:46:04;2.93;;;2.50;;
14849;SDS011;7517;48.400;11.770;2022-11-02T00:48:31;2.60;;;2.40;;
14849;SDS011;7517;48.400;11.770;2022-11-02T00:50:58;2.77;;;2.30;;
14849;SDS011;7517;48.400;11.770;2022-11-02T00:53:26;3.10;;;2.80;;
14849;SDS011;7517;48.400;11.770;2022-11-02T00:55:53;2.90;;;2.70;;
14849;SDS011;7517;48.400;11.770;2022-11-02T00:58:21;2.60;;;2.40;;
14849;SDS011;7517;48.400;11.770;2022-11-02T01:00:49;2.70;;;2.50;;
14849;SDS011;7517;48.400;11.770;2022-11-02T01:03:16;2.80;;;2.50;;
14849;SDS011;7517;48.400;11.770;2022-11-02T01:05:43;3.07;;;2.23;;
14849;SDS011;7517;48.400;11.770;2022-11-02T01:08:10;2.77;;;2.40;;
14849;SDS011;7517;48.400;11.770;2022-11-02T01:10:37;5.03;;;2.63;;
14849;SDS011;7517;48.400;11.770;2022-11-02T01:13:04;3.00;;;2.70;;
14849;SDS011;7517;48.400;11.770;2022-11-02T01:15:36;3.93;;;2.80;;
14849;SDS011;7517;48.400;11.770;2022-11-02T01:18:03;2.63;;;2.43;;
14849;SDS011;7517;48.400;11.770;2022-11-02T01:20:30;3.00;;;2.63;;
14849;SDS011;7517;48.400;11.770;2022-11-02T01:22:58;2.40;;;2.30;;
14849;SDS011;7517;48.400;11.770;2022-11-02T01:25:25;2.87;;;2.57;;
14849;SDS011;7517;48.400;11.770;2022-11-02T01:27:52;4.30;;;2.73;;
14849;SDS011;7517;48.400;11.770;2022-11-02T01:30:19;3.10;;;2.90;;
14849;SDS011;7517;48.400;11.770;2022-11-02T01:32:48;2.70;;;2.50;;
14849;SDS011;7517;48.400;11.770;2022-11-02T01:35:15;2.63;;;2.43;;
14849;SDS011;7517;48.400;11.770;2022-11-02T01:37:42;2.77;;;2.57;;
14849;SDS011;7517;48.400;11.770;2022-11-02T01:40:10;2.63;;;2.37;;
14849;SDS011;7517;48.400;11.770;2022-11-02T01:42:37;2.80;;;2.57;;
14849;SDS011;7517;48.400;11.770;2022-11-02T01:45:05;2.50;;;2.30;;
14849;SDS011;7517;48.400;11.770;2022-11-02T01:47:35;2.50;;;2.30;;
14849;SDS011;7517;48.400;11.770;2022-11-02T01:50:07;2.43;;;2.23;;
14849;SDS011;7517;48.400;11.770;2022-11-02T01:52:40;2.33;;;2.13;;
14849;SDS011;7517;48.400;11.770;2022-11-02T01:55:09;2.70;;;2.50;;
14849;SDS011;7517;48.400;11.770;2022-11-02T01:57:42;2.57;;;2.37;;
14849;SDS011;7517;48.400;11.770;2022-11-02T02:00:14;2.73;;;2.43;;
14849;SDS011;7517;48.400;11.770;2022-11-02T02:02:44;2.40;;;2.20;;
14849;SDS011;7517;48.400;11.770;2022-11-02T02:05:20;3.03;;;2.40;;
14849;SDS011;7517;48.400;11.770;2022-11-02T02:07:49;2.30;;;2.10;;
14849;SDS011;7517;48.400;11.770;2022-11-02T02:10:18;2.00;;;1.90;;
14849;SDS011;7517;48.400;11.770;2022-11-02T02:12:45;2.40;;;2.20;;
14849;SDS011;7517;48.400;11.770;2022-11-02T02:15:13;2.63;;;2.00;;
14849;SDS011;7517;48.400;11.770;2022-11-02T02:17:42;2.63;;;2.03;;
14849;SDS011;7517;48.400;11.770;2022-11-02T02:20:18;2.23;;;1.80;;
14849;SDS011;7517;48.400;11.770;2022-11-02T02:23:29;2.40;;;2.00;;
14849;SDS011;7517;48.400;11.770;2022-11-02T02:29:31;1.93;;;1.73;;
14849;SDS011;7517;48.400;11.770;2022-11-02T02:32:12;2.83;;;2.50;;
14849;SDS011;7517;48.400;11.770;2022-11-02T02:34:49;2.33;;;2.00;;
14849;SDS011;7517;48.400;11.770;2022-11-02T02:37:20;2.30;;;2.10;;
14849;SDS011;7517;48.400;11.770;2022-11-02T02:39:56;2.30;;;2.10;;
14849;SDS011;7517;48.400;11.770;2022-11-02T02:42:31;2.70;;;2.40;;
14849;SDS011;7517;48.400;11.770;2022-11-02T02:45:07;3.63;;;2.20;;
14849;SDS011;7517;48.400;11.770;2022-11-02T02:47:41;2.77;;;2.57;;
14849;SDS011;7517;48.400;11.770;2022-11-02T02:50:16;3.17;;;2.50;;
14849;SDS011;7517;48.400;11.770;2022-11-02T02:52:48;2.80;;;2.57;;
14849;SDS011;7517;48.400;11.770;2022-11-02T02:55:20;4.23;;;2.27;;
14849;SDS011;7517;48.400;11.770;2022-11-02T02:58:01;2.20;;;2.10;;
14849;SDS011;7517;48.400;11.770;2022-11-02T03:00:33;6.07;;;2.60;;
14849;SDS011;7517;48.400;11.770;2022-11-02T03:03:02;4.53;;;2.33;;
14849;SDS011;7517;48.400;11.770;2022-11-02T03:05:31;2.63;;;2.43;;
14849;SDS011;7517;48.400;11.770;2022-11-02T03:08:01;4.73;;;2.77;;
14849;SDS011;7517;48.400;11.770;2022-11-02T03:10:34;2.30;;;2.10;;
14849;SDS011;7517;48.400;11.770;2022-11-02T03:13:14;2.60;;;2.40;;
14849;SDS011;7517;48.400;11.770;2022-11-02T03:16:02;2.20;;;2.10;;
14849;SDS011;7517;48.400;11.770;2022-11-02T03:18:43;2.03;;;1.93;;
14849;SDS011;7517;48.400;11.770;2022-11-02T03:21:20;2.57;;;2.10;;
14849;SDS011;7517;48.400;11.770;2022-11-02T03:23:53;2.00;;;1.90;;
14849;SDS011;7517;48.400;11.770;2022-11-02T03:26:28;2.13;;;1.93;;
14849;SDS011;7517;48.400;11.770;2022-11-02T03:29:00;2.37;;;2.03;;
14849;SDS011;7517;48.400;11.770;2022-11-02T03:31:35;2.97;;;2.30;;
14849;SDS011;7517;48.400;11.770;2022-11-02T03:34:16;2.50;;;2.20;;
14849;SDS011;7517;48.400;11.770;2022-11-02T03:36:53;2.63;;;2.07;;
14849;SDS011;7517;48.400;11.770;2022-11-02T03:39:29;3.73;;;2.00;;
14849;SDS011;7517;48.400;11.770;2022-11-02T03:42:02;2.10;;;2.00;;
14849;SDS011;7517;48.400;11.770;2022-11-02T03:44:32;2.50;;;2.30;;
14849;SDS011;7517;48.400;11.770;2022-11-02T03:47:05;2.33;;;2.13;;
14849;SDS011;7517;48.400;11.770;2022-11-02T03:49:38;2.27;;;2.07;;
14849;SDS011;7517;48.400;11.770;2022-11-02T03:52:09;2.00;;;1.90;;
14849;SDS011;7517;48.400;11.770;2022-11-02T03:54:44;2.67;;;2.23;;
14849;SDS011;7517;48.400;11.770;2022-11-02T03:57:20;3.07;;;2.03;;
14849;SDS011;7517;48.400;11.770;2022-11-02T04:00:04;3.90;;;2.33;;
14849;SDS011;7517;48.400;11.770;2022-11-02T04:02:35;2.53;;;2.27;;
14849;SDS011;7517;48.400;11.770;2022-11-02T04:05:05;2.77;;;1.93;;
14849;SDS011;7517;48.400;11.770;2022-11-02T04:07:33;2.30;;;2.10;;
14849;SDS011;7517;48.400;11.770;2022-11-02T04:10:23;1.97;;;1.73;;
14849;SDS011;7517;48.400;11.770;2022-11-02T04:12:51;2.47;;;2.27;;
14849;SDS011;7517;48.400;11.770;2022-11-02T04:15:35;2.10;;;2.00;;
14849;SDS011;7517;48.400;11.770;2022-11-02T04:18:04;2.30;;;2.10;;
14849;SDS011;7517;48.400;11.770;2022-11-02T04:20:57;1.93;;;1.83;;
14849;SDS011;7517;48.400;11.770;2022-11-02T04:23:24;1.93;;;1.83;;
14849;SDS011;7517;48.400;11.770;2022-11-02T04:26:09;2.17;;;1.97;;
14849;SDS011;7517;48.400;11.770;2022-11-02T04:28:36;2.57;;;2.13;;
14849;SDS011;7517;48.400;11.770;2022-11-02T04:31:03;2.53;;;2.00;;
14849;SDS011;7517;48.400;11.770;2022-11-02T04:33:32;2.27;;;2.07;;
14849;SDS011;7517;48.400;11.770;2022-11-02T04:35:58;2.37;;;2.20;;
14849;SDS011;7517;48.400;11.770;2022-11-02T04:38:27;2.37;;;1.80;;
14849;SDS011;7517;48.400;11.770;2022-11-02T04:41:06;2.63;;;1.70;;
14849;SDS011;7517;48.400;11.770;2022-11-02T04:43:50;2.03;;;1.90;;
14849;SDS011;7517;48.400;11.770;2022-11-02T04:46:17;2.20;;;2.00;;
14849;SDS011;7517;48.400;11.770;2022-11-02T04:48:46;2.30;;;2.10;;
14849;SDS011;7517;48.400;11.770;2022-11-02T04:51:13;2.30;;;2.10;;
14849;SDS011;7517;48.400;11.770;2022-11-02T04:53:41;2.17;;;1.83;;
14849;SDS011;7517;48.400;11.770;2022-11-02T04:56:08;3.10;;;2.23;;
14849;SDS011;7517;48.400;11.770;2022-11-02T04:58:36;2.97;;;2.00;;
14849;SDS011;7517;48.400;11.770;2022-11-02T05:01:04;2.30;;;2.03;;
14849;SDS011;7517;48.400;11.770;2022-11-02T05:03:39;1.60;;;1.50;;
14849;SDS011;7517;48.400;11.770;2022-11-02T05:06:13;2.03;;;1.83;;
14849;SDS011;7517;48.400;11.770;2022-11-02T05:08:41;1.67;;;1.57;;
14849;SDS011;7517;48.400;11.770;2022-11-02T05:11:09;1.83;;;1.63;;
14849;SDS011;7517;48.400;11.770;2022-11-02T05:13:37;2.30;;;2.10;;
14849;SDS011;7517;48.400;11.770;2022-11-02T05:16:06;2.97;;;2.27;;
14849;SDS011;7517;48.400;11.770;2022-11-02T05:18:37;2.67;;;2.30;;
14849;SDS011;7517;48.400;11.770;2022-11-02T05:21:06;2.87;;;2.23;;
14849;SDS011;7517;48.400;11.770;2022-11-02T05:23:35;3.30;;;2.00;;
14849;SDS011;7517;48.400;11.770;2022-11-02T05:26:04;2.10;;;2.00;;
14849;SDS011;7517;48.400;11.770;2022-11-02T05:28:35;2.17;;;1.97;;
14849;SDS011;7517;48.400;11.770;2022-11-02T05:31:02;1.80;;;1.70;;
14849;SDS011;7517;48.400;11.770;2022-11-02T05:33:30;2.17;;;1.97;;
14849;SDS011;7517;48.400;11.770;2022-11-02T05:35:58;2.07;;;1.93;;
14849;SDS011;7517;48.400;11.770;2022-11-02T05:38:28;2.27;;;2.00;;
14849;SDS011;7517;48.400;11.770;2022-11-02T05:40:56;2.13;;;1.97;;
14849;SDS011;7517;48.400;11.770;2022-11-02T05:43:25;4.23;;;2.20;;
14849;SDS011;7517;48.400;11.770;2022-11-02T05:45:53;3.57;;;2.00;;
14849;SDS011;7517;48.400;11.770;2022-11-02T05:48:22;3.67;;;2.10;;
14849;SDS011;7517;48.400;11.770;2022-11-02T05:50:53;2.40;;;2.00;;
14849;SDS011;7517;48.400;11.770;2022-11-02T05:53:22;2.33;;;2.10;;
14849;SDS011;7517;48.400;11.770;2022-11-02T05:55:50;1.83;;;1.73;;
14849;SDS011;7517;48.400;11.770;2022-11-02T05:58:18;3.63;;;1.87;;
14849;SDS011;7517;48.400;11.770;2022-11-02T06:00:45;2.23;;;2.03;;
14849;SDS011;7517;48.400;11.770;2022-11-02T06:03:13;2.50;;;2.30;;
14849;SDS011;7517;48.400;11.770;2022-11-02T06:05:41;4.17;;;2.33;;
14849;SDS011;7517;48.400;11.770;2022-11-02T06:08:08;3.63;;;2.30;;
14849;SDS011;7517;48.400;11.770;2022-11-02T06:10:35;2.30;;;2.10;;
14849;SDS011;7517;48.400;11.770;2022-11-02T06:13:08;2.93;;;2.27;;
14849;SDS011;7517;48.400;11.770;2022-11-02T06:15:35;5.07;;;2.30;;
14849;SDS011;7517;48.400;11.770;2022-11-02T06:18:02;2.47;;;2.27;;
14849;SDS011;7517;48.400;11.770;2022-11-02T06:20:30;2.47;;;2.27;;
14849;SDS011;7517;48.400;11.770;2022-11-02T06:22:57;3.90;;;2.40;;
14849;SDS011;7517;48.400;11.770;2022-11-02T06:25:24;2.37;;;2.17;;
14849;SDS011;7517;48.400;11.770;2022-11-02T06:27:52;3.50;;;2.33;;
14849;SDS011;7517;48.400;11.770;2022-11-02T06:30:22;2.23;;;2.03;;
14849;SDS011;7517;48.400;11.770;2022-11-02T06:32:51;3.10;;;2.50;;
14849;SDS011;7517;48.400;11.770;2022-11-02T06:35:20;2.47;;;2.27;;
14849;SDS011;7517;48.400;11.770;2022-11-02T06:37:48;2.40;;;2.20;;
14849;SDS011;7517;48.400;11.770;2022-11-02T06:40:15;2.87;;;2.43;;
14849;SDS011;7517;48.400;11.770;2022-11-02T06:42:42;3.50;;;2.43;;
14849;SDS011;7517;48.400;11.770;2022-11-02T06:45:10;4.60;;;2.40;;
14849;SDS011;7517;48.400;11.770;2022-11-02T06:47:38;2.67;;;2.30;;
14849;SDS011;7517;48.400;11.770;2022-11-02T06:50:05;2.03;;;1.93;;
14849;SDS011;7517;48.400;11.770;2022-11-02T06:52:34;2.37;;;2.17;;
14849;SDS011;7517;48.400;11.770;2022-11-02T06:55:08;2.60;;;2.20;;
14849;SDS011;7517;48.400;11.770;2022-11-02T06:57:35;2.83;;;2.13;;
14849;SDS011;7517;48.400;11.770;2022-11-02T07:00:03;2.20;;;2.00;;
14849;SDS011;7517;48.400;11.770;2022-11-02T07:02:32;2.23;;;2.00;;
14849;SDS011;7517;48.400;11.770;2022-11-02T07:05:01;2.53;;;2.33;;
14849;SDS011;7517;48.400;11.770;2022-11-02T07:07:28;3.27;;;2.30;;
14849;SDS011;7517;48.400;11.770;2022-11-02T07:09:55;2.83;;;2.63;;
14849;SDS011;7517;48.400;11.770;2022-11-02T07:12:22;2.70;;;2.20;;
14849;SDS011;7517;48.400;11.770;2022-11-02T07:14:50;2.90;;;2.70;;
14849;SDS011;7517;48.400;11.770;2022-11-02T07:17:17;3.13;;;2.30;;
14849;SDS011;7517;48.400;11.770;2022-11-02T07:19:44;2.53;;;2.10;;
14849;SDS011;7517;48.400;11.770;2022-11-02T07:22:12;2.53;;;2.10;;
14849;SDS011;7517;48.400;11.770;2022-11-02T07:24:40;3.17;;;2.70;;
14849;SDS011;7517;48.400;11.770;2022-11-02T07:27:07;2.63;;;2.43;;
14849;SDS011;7517;48.400;11.770;2022-11-02T07:29:34;3.17;;;2.23;;
14849;SDS011;7517;48.400;11.770;2022-11-02T07:32:01;2.37;;;2.17;;
14849;SDS011;7517;48.400;11.770;2022-11-02T07:34:30;2.43;;;2.23;;
14849;SDS011;7517;48.400;11.770;2022-11-02T07:36:57;2.63;;;2.43;;
14849;SDS011;7517;48.400;11.770;2022-11-02T07:39:26;2.80;;;2.43;;
14849;SDS011;7517;48.400;11.770;2022-11-02T07:41:53;4.10;;;2.40;;
14849;SDS011;7517;48.400;11.770;2022-11-02T07:44:20;3.73;;;2.70;;
14849;SDS011;7517;48.400;11.770;2022-11-02T07:46:48;3.43;;;2.63;;
14849;SDS011;7517;48.400;11.770;2022-11-02T07:49:15;3.57;;;2.10;;
14849;SDS011;7517;48.400;11.770;2022-11-02T07:51:42;3.40;;;2.67;;
14849;SDS011;7517;48.400;11.770;2022-11-02T07:54:09;4.43;;;2.30;;
14849;SDS011;7517;48.400;11.770;2022-11-02T07:56:38;2.73;;;2.27;;
14849;SDS011;7517;48.400;11.770;2022-11-02T07:59:05;2.40;;;2.20;;
14849;SDS011;7517;48.400;11.770;2022-11-02T08:01:32;3.10;;;2.63;;
14849;SDS011;7517;48.400;11.770;2022-11-02T08:03:59;3.50;;;2.73;;
14849;SDS011;7517;48.400;11.770;2022-11-02T08:06:26;2.60;;;2.40;;
14849;SDS011;7517;48.400;11.770;2022-11-02T08:08:53;2.60;;;2.40;;
14849;SDS011;7517;48.400;11.770;2022-11-02T08:11:21;2.53;;;2.33;;
14849;SDS011;7517;48.400;11.770;2022-11-02T08:13:49;3.07;;;2.70;;
14849;SDS011;7517;48.400;11.770;2022-11-02T08:16:16;3.70;;;2.70;;
14849;SDS011;7517;48.400;11.770;2022-11-02T08:18:43;2.90;;;2.70;;
14849;SDS011;7517;48.400;11.770;2022-11-02T08:21:11;3.00;;;2.80;;
14849;SDS011;7517;48.400;11.770;2022-11-02T08:23:38;2.90;;;2.70;;
14849;SDS011;7517;48.400;11.770;2022-11-02T08:26:05;2.87;;;2.67;;
14849;SDS011;7517;48.400;11.770;2022-11-02T08:28:32;6.20;;;3.33;;
14849;SDS011;7517;48.400;11.770;2022-11-02T08:31:05;3.50;;;3.10;;
14849;SDS011;7517;48.400;11.770;2022-11-02T08:33:37;3.50;;;3.00;;
14849;SDS011;7517;48.400;11.770;2022-11-02T08:36:04;3.47;;;2.47;;
14849;SDS011;7517;48.400;11.770;2022-11-02T08:38:32;4.13;;;2.50;;
14849;SDS011;7517;48.400;11.770;2022-11-02T08:40:59;3.13;;;2.50;;
14849;SDS011;7517;48.400;11.770;2022-11-02T08:43:26;4.37;;;2.80;;
14849;SDS011;7517;48.400;11.770;2022-11-02T08:45:55;5.13;;;2.67;;
14849;SDS011;7517;48.400;11.770;2022-11-02T08:48:25;2.67;;;2.33;;
14849;SDS011;7517;48.400;11.770;2022-11-02T08:50:52;2.60;;;2.40;;
14849;SDS011;7517;48.400;11.770;2022-11-02T08:53:20;2.60;;;2.30;;
14849;SDS011;7517;48.400;11.770;2022-11-02T08:55:48;2.57;;;2.37;;
14849;SDS011;7517;48.400;11.770;2022-11-02T08:58:15;2.57;;;2.30;;
14849;SDS011;7517;48.400;11.770;2022-11-02T09:00:42;3.67;;;2.40;;
14849;SDS011;7517;48.400;11.770;2022-11-02T09:03:10;4.03;;;2.83;;
14849;SDS011;7517;48.400;11.770;2022-11-02T09:05:42;3.70;;;3.27;;
14849;SDS011;7517;48.400;11.770;2022-11-02T09:08:11;4.87;;;2.87;;
14849;SDS011;7517;48.400;11.770;2022-11-02T09:10:41;2.83;;;2.53;;
14849;SDS011;7517;48.400;11.770;2022-11-02T09:13:10;2.07;;;1.97;;
14849;SDS011;7517;48.400;11.770;2022-11-02T09:15:40;2.63;;;2.43;;
14849;SDS011;7517;48.400;11.770;2022-11-02T09:18:07;2.07;;;1.90;;
14849;SDS011;7517;48.400;11.770;2022-11-02T09:20:35;2.47;;;2.27;;
14849;SDS011;7517;48.400;11.770;2022-11-02T09:23:04;2.53;;;1.97;;
14849;SDS011;7517;48.400;11.770;2022-11-02T09:25:31;1.90;;;1.80;;
14849;SDS011;7517;48.400;11.770;2022-11-02T09:27:59;1.80;;;1.70;;
14849;SDS011;7517;48.400;11.770;2022-11-02T09:30:26;2.57;;;1.83;;
14849;SDS011;7517;48.400;11.770;2022-11-02T09:32:54;2.47;;;1.83;;
14849;SDS011;7517;48.400;11.770;2022-11-02T09:35:22;4.63;;;1.70;;
14849;SDS011;7517;48.400;11.770;2022-11-02T09:37:50;2.13;;;1.60;;
14849;SDS011;7517;48.400;11.770;2022-11-02T09:40:20;1.40;;;1.30;;
14849;SDS011;7517;48.400;11.770;2022-11-02T09:42:54;1.77;;;1.50;;
14849;SDS011;7517;48.400;11.770;2022-11-02T09:45:32;1.93;;;1.50;;
14849;SDS011;7517;48.400;11.770;2022-11-02T09:48:06;1.60;;;1.50;;
14849;SDS011;7517;48.400;11.770;2022-11-02T09:50:43;2.33;;;1.50;;
14849;SDS011;7517;48.400;11.770;2022-11-02T09:53:19;2.40;;;1.40;;
14849;SDS011;7517;48.400;11.770;2022-11-02T09:55:56;2.87;;;1.80;;
14849;SDS011;7517;48.400;11.770;2022-11-02T09:58:29;3.43;;;1.67;;
14849;SDS011;7517;48.400;11.770;2022-11-02T10:01:03;2.13;;;1.90;;
14849;SDS011;7517;48.400;11.770;2022-11-02T10:03:52;1.77;;;1.67;;
14849;SDS011;7517;48.400;11.770;2022-11-02T10:06:43;2.80;;;1.80;;
14849;SDS011;7517;48.400;11.770;2022-11-02T10:09:20;2.00;;;1.70;;
14849;SDS011;7517;48.400;11.770;2022-11-02T10:12:02;1.73;;;1.40;;
14849;SDS011;7517;48.400;11.770;2022-11-02T10:14:37;2.23;;;1.60;;
14849;SDS011;7517;48.400;11.770;2022-11-02T10:17:17;1.37;;;1.10;;
14849;SDS011;7517;48.400;11.770;2022-11-02T10:19:53;1.67;;;1.57;;
14849;SDS011;7517;48.400;11.770;2022-11-02T10:22:23;2.70;;;1.70;;
14849;SDS011;7517;48.400;11.770;2022-11-02T10:24:58;2.63;;;1.73;;
14849;SDS011;7517;48.400;11.770;2022-11-02T10:27:33;2.80;;;1.47;;
14849;SDS011;7517;48.400;11.770;2022-11-02T10:30:05;3.07;;;1.37;;
14849;SDS011;7517;48.400;11.770;2022-11-02T10:32:38;1.77;;;1.23;;
14849;SDS011;7517;48.400;11.770;2022-11-02T10:35:11;1.30;;;1.20;;
14849;SDS011;7517;48.400;11.770;2022-11-02T10:37:49;1.37;;;1.20;;
14849;SDS011;7517;48.400;11.770;2022-11-02T10:43:46;3.63;;;1.17;;
14849;SDS011;7517;48.400;11.770;2022-11-02T10:46:37;2.13;;;1.20;;
14849;SDS011;7517;48.400;11.770;2022-11-02T10:49:21;2.00;;;1.20;;
14849;SDS011;7517;48.400;11.770;2022-11-02T10:52:17;1.37;;;1.00;;
14849;SDS011;7517;48.400;11.770;2022-11-02T10:54:45;3.77;;;1.23;;
14849;SDS011;7517;48.400;11.770;2022-11-02T10:57:17;9.07;;;1.60;;
14849;SDS011;7517;48.400;11.770;2022-11-02T11:03:01;1.67;;;0.70;;
14849;SDS011;7517;48.400;11.770;2022-11-02T11:05:30;3.30;;;0.70;;
14849;SDS011;7517;48.400;11.770;2022-11-02T11:08:00;5.80;;;0.97;;
14849;SDS011;7517;48.400;11.770;2022-11-02T11:10:29;2.90;;;0.93;;
14849;SDS011;7517;48.400;11.770;2022-11-02T11:13:02;1.30;;;0.80;;
14849;SDS011;7517;48.400;11.770;2022-11-02T11:15:33;3.97;;;0.70;;
14849;SDS011;7517;48.400;11.770;2022-11-02T11:18:08;1.73;;;0.93;;
14849;SDS011;7517;48.400;11.770;2022-11-02T11:20:39;1.93;;;0.90;;
14849;SDS011;7517;48.400;11.770;2022-11-02T11:23:13;2.73;;;0.63;;
14849;SDS011;7517;48.400;11.770;2022-11-02T11:25:58;5.47;;;1.17;;
14849;SDS011;7517;48.400;11.770;2022-11-02T11:28:28;2.47;;;0.63;;
14849;SDS011;7517;48.400;11.770;2022-11-02T11:31:08;1.70;;;0.97;;
14849;SDS011;7517;48.400;11.770;2022-11-02T11:33:40;2.23;;;0.70;;
14849;SDS011;7517;48.400;11.770;2022-11-02T11:36:22;2.40;;;0.60;;
14849;SDS011;7517;48.400;11.770;2022-11-02T11:38:53;2.60;;;0.77;;
14849;SDS011;7517;48.400;11.770;2022-11-02T11:41:24;3.23;;;0.60;;
14849;SDS011;7517;48.400;11.770;2022-11-02T11:43:52;3.53;;;0.80;;
14849;SDS011;7517;48.400;11.770;2022-11-02T11:46:21;1.07;;;0.70;;
14849;SDS011;7517;48.400;11.770;2022-11-02T11:48:49;1.70;;;0.70;;
14849;SDS011;7517;48.400;11.770;2022-11-02T11:51:24;2.20;;;0.70;;
14849;SDS011;7517;48.400;11.770;2022-11-02T11:54:15;0.83;;;0.60;;
14849;SDS011;7517;48.400;11.770;2022-11-02T11:56:48;1.13;;;0.50;;
14849;SDS011;7517;48.400;11.770;2022-11-02T11:59:19;1.53;;;0.63;;
14849;SDS011;7517;48.400;11.770;2022-11-02T12:01:52;1.57;;;0.57;;
14849;SDS011;7517;48.400;11.770;2022-11-02T12:04:26;1.53;;;0.60;;
14849;SDS011;7517;48.400;11.770;2022-11-02T12:07:01;0.77;;;0.50;;
14849;SDS011;7517;48.400;11.770;2022-11-02T12:10:02;0.70;;;0.50;;
14849;SDS011;7517;48.400;11.770;2022-11-02T12:12:43;0.67;;;0.60;;
14849;SDS011;7517;48.400;11.770;2022-11-02T12:15:35;0.97;;;0.50;;
14849;SDS011;7517;48.400;11.770;2022-11-02T12:18:27;1.57;;;0.60;;
14849;SDS011;7517;48.400;11.770;2022-11-02T12:21:13;0.77;;;0.60;;
14849;SDS011;7517;48.400;11.770;2022-11-02T12:24:05;0.83;;;0.57;;
14849;SDS011;7517;48.400;11.770;2022-11-02T12:26:50;0.77;;;0.40;;
14849;SDS011;7517;48.400;11.770;2022-11-02T12:32:46;1.73;;;0.30;;
14849;SDS011;7517;48.400;11.770;2022-11-02T12:35:57;1.17;;;0.40;;
14849;SDS011;7517;48.400;11.770;2022-11-02T12:38:36;0.97;;;0.50;;
14849;SDS011;7517;48.400;11.770;2022-11-02T12:41:27;3.40;;;2.30;;
14849;SDS011;7517;48.400;11.770;2022-11-02T12:44:24;1.40;;;1.30;;
14849;SDS011;7517;48.400;11.770;2022-11-02T12:47:12;3.87;;;3.37;;
14849;SDS011;7517;48.400;11.770;2022-11-02T12:50:07;2.70;;;1.77;;
14849;SDS011;7517;48.400;11.770;2022-11-02T12:52:50;1.63;;;0.90;;
14849;SDS011;7517;48.400;11.770;2022-11-02T12:55:33;1.37;;;0.50;;
14849;SDS011;7517;48.400;11.770;2022-11-02T12:58:10;1.30;;;0.50;;
14849;SDS011;7517;48.400;11.770;2022-11-02T13:00:46;1.67;;;0.50;;
14849;SDS011;7517;48.400;11.770;2022-11-02T13:03:23;0.60;;;0.60;;
14849;SDS011;7517;48.400;11.770;2022-11-02T13:06:01;0.97;;;0.50;;
14849;SDS011;7517;48.400;11.770;2022-11-02T13:08:37;1.77;;;0.70;;
14849;SDS011;7517;48.400;11.770;2022-11-02T13:11:11;1.03;;;0.40;;
14849;SDS011;7517;48.400;11.770;2022-11-02T13:13:50;1.03;;;0.53;;
14849;SDS011;7517;48.400;11.770;2022-11-02T13:16:23;1.37;;;0.50;;
14849;SDS011;7517;48.400;11.770;2022-11-02T13:19:03;0.63;;;0.50;;
14849;SDS011;7517;48.400;11.770;2022-11-02T13:21:42;1.53;;;1.00;;
14849;SDS011;7517;48.400;11.770;2022-11-02T13:24:21;2.20;;;0.53;;
14849;SDS011;7517;48.400;11.770;2022-11-02T13:26:52;0.83;;;0.50;;
14849;SDS011;7517;48.400;11.770;2022-11-02T13:29:22;0.93;;;0.40;;
14849;SDS011;7517;48.400;11.770;2022-11-02T13:32:05;1.57;;;0.80;;
14849;SDS011;7517;48.400;11.770;2022-11-02T13:34:43;2.20;;;0.60;;
14849;SDS011;7517;48.400;11.770;2022-11-02T13:37:16;2.23;;;0.50;;
14849;SDS011;7517;48.400;11.770;2022-11-02T13:39:52;1.90;;;0.83;;
14849;SDS011;7517;48.400;11.770;2022-11-02T13:42:30;0.90;;;0.60;;
14849;SDS011;7517;48.400;11.770;2022-11-02T13:45:36;1.37;;;0.73;;
14849;SDS011;7517;48.400;11.770;2022-11-02T13:48:35;1.70;;;0.50;;
14849;SDS011;7517;48.400;11.770;2022-11-02T13:51:22;1.27;;;0.50;;
14849;SDS011;7517;48.400;11.770;2022-11-02T13:53:57;0.97;;;0.70;;
14849;SDS011;7517;48.400;11.770;2022-11-02T13:56:33;1.03;;;0.63;;
14849;SDS011;7517;48.400;11.770;2022-11-02T13:59:03;2.33;;;0.77;;
14849;SDS011;7517;48.400;11.770;2022-11-02T14:01:34;0.97;;;0.60;;
14849;SDS011;7517;48.400;11.770;2022-11-02T14:04:06;1.10;;;0.40;;
14849;SDS011;7517;48.400;11.770;2022-11-02T14:06:45;0.67;;;0.50;;
14849;SDS011;7517;48.400;11.770;2022-11-02T14:09:22;1.60;;;0.90;;
14849;SDS011;7517;48.400;11.770;2022-11-02T14:12:24;3.17;;;0.73;;
14849;SDS011;7517;48.400;11.770;2022-11-02T14:18:26;1.77;;;0.80;;
14849;SDS011;7517;48.400;11.770;2022-11-02T14:20:56;2.10;;;0.80;;
14849;SDS011;7517;48.400;11.770;2022-11-02T14:23:32;1.03;;;0.60;;
14849;SDS011;7517;48.400;11.770;2022-11-02T14:26:02;0.73;;;0.50;;
14849;SDS011;7517;48.400;11.770;2022-11-02T14:28:32;1.30;;;0.60;;
14849;SDS011;7517;48.400;11.770;2022-11-02T14:31:26;1.87;;;0.77;;
14849;SDS011;7517;48.400;11.770;2022-11-02T14:37:09;2.93;;;0.70;;
14849;SDS011;7517;48.400;11.770;2022-11-02T14:39:59;1.87;;;0.53;;
14849;SDS011;7517;48.400;11.770;2022-11-02T14:42:51;1.13;;;0.60;;
14849;SDS011;7517;48.400;11.770;2022-11-02T14:46:02;1.13;;;0.63;;
14849;SDS011;7517;48.400;11.770;2022-11-02T14:48:44;1.30;;;0.70;;
14849;SDS011;7517;48.400;11.770;2022-11-02T14:51:16;1.50;;;0.63;;
14849;SDS011;7517;48.400;11.770;2022-11-02T14:53:47;1.40;;;0.80;;
14849;SDS011;7517;48.400;11.770;2022-11-02T14:56:22;1.83;;;0.83;;
14849;SDS011;7517;48.400;11.770;2022-11-02T14:58:50;1.57;;;0.63;;
14849;SDS011;7517;48.400;11.770;2022-11-02T15:01:23;3.13;;;1.20;;
14849;SDS011;7517;48.400;11.770;2022-11-02T15:03:50;2.50;;;1.00;;
14849;SDS011;7517;48.400;11.770;2022-11-02T15:06:19;1.93;;;1.10;;
14849;SDS011;7517;48.400;11.770;2022-11-02T15:08:51;0.80;;;0.40;;
14849;SDS011;7517;48.400;11.770;2022-11-02T15:20:24;2.83;;;0.70;;
14849;SDS011;7517;48.400;11.770;2022-11-02T15:23:02;2.27;;;0.60;;
14849;SDS011;7517;48.400;11.770;2022-11-02T15:25:47;1.57;;;0.87;;
14849;SDS011;7517;48.400;11.770;2022-11-02T15:28:18;1.30;;;0.80;;
14849;SDS011;7517;48.400;11.770;2022-11-02T15:30:50;2.73;;;0.70;;
14849;SDS011;7517;48.400;11.770;2022-11-02T15:33:27;3.03;;;0.83;;
14849;SDS011;7517;48.400;11.770;2022-11-02T15:36:02;0.77;;;0.70;;
14849;SDS011;7517;48.400;11.770;2022-11-02T15:38:33;1.03;;;0.53;;
14849;SDS011;7517;48.400;11.770;2022-11-02T15:41:14;2.20;;;0.90;;
14849;SDS011;7517;48.400;11.770;2022-11-02T15:43:58;2.20;;;0.70;;
14849;SDS011;7517;48.400;11.770;2022-11-02T15:46:57;3.10;;;0.80;;
14849;SDS011;7517;48.400;11.770;2022-11-02T15:50:00;1.80;;;0.87;;
14849;SDS011;7517;48.400;11.770;2022-11-02T15:52:51;1.50;;;0.87;;